createdAt,value
2023-11-18T00:03:49.724Z,6.06
2023-11-18T00:08:46.002Z,6.03
2023-11-18T00:13:45.834Z,6.05
2023-11-18T00:18:46.077Z,6.05
2023-11-18T00:23:45.881Z,6.05
2023-11-18T00:28:45.940Z,6.05
2023-11-18T00:33:46.422Z,6.05
2023-11-18T00:38:46.197Z,6.05
2023-11-18T00:43:47.332Z,6.02
2023-11-18T00:48:43.560Z,6.04
2023-11-18T00:53:43.328Z,6.03
2023-11-18T00:58:43.229Z,6.03
2023-11-18T01:03:43.470Z,6.01
2023-11-18T01:08:43.365Z,6.01
2023-11-18T01:13:43.694Z,6.03
2023-11-18T01:18:43.192Z,6.06
2023-11-18T01:23:43.102Z,6.07
2023-11-18T01:28:41.680Z,6.09
2023-11-18T01:33:41.955Z,6.1
2023-11-18T01:38:41.829Z,6.11
2023-11-18T01:43:42.303Z,6.13
2023-11-18T01:48:41.602Z,6.14
2023-11-18T01:53:42.136Z,6.15
2023-11-18T01:58:41.659Z,6.16
2023-11-18T02:05:04.434Z,6.18
2023-11-18T02:10:03.770Z,6.18
2023-11-18T02:15:03.619Z,6.18
2023-11-18T02:20:03.953Z,6.21
2023-11-18T02:25:03.499Z,6.25
2023-11-18T02:35:03.836Z,6.24
2023-11-18T02:40:03.424Z,6.22
2023-11-18T02:45:03.490Z,6.23
2023-11-18T02:50:11.598Z,6.22
2023-11-18T02:55:12.076Z,6.21
2023-11-18T02:59:33.503Z,6.19
2023-11-18T03:04:33.001Z,6.18
2023-11-18T03:09:33.029Z,6.22
2023-11-18T03:14:33.324Z,6.22
2023-11-18T03:19:33.155Z,6.23
2023-11-18T03:24:33.121Z,6.23
2023-11-18T03:29:30.625Z,6.21
2023-11-18T03:34:30.352Z,6.18
2023-11-18T03:39:30.599Z,6.18
2023-11-18T03:44:30.157Z,6.16
2023-11-18T03:49:30.105Z,6.15
2023-11-18T03:54:30.368Z,6.19
2023-11-18T03:59:07.228Z,6.18
2023-11-18T04:04:07.308Z,6.13
2023-11-18T04:09:04.601Z,6.04
2023-11-18T04:14:04.222Z,5.99
2023-11-18T04:19:04.001Z,5.92
2023-11-18T04:24:04.203Z,5.88
2023-11-18T04:29:03.975Z,5.83
2023-11-18T04:34:03.769Z,5.76
2023-11-18T04:39:04.193Z,5.7
2023-11-18T04:44:04.011Z,5.68
2023-11-18T04:49:04.901Z,5.68
2023-11-18T04:54:11.713Z,5.68
2023-11-18T04:58:44.675Z,5.65
2023-11-18T05:03:44.718Z,5.62
2023-11-18T05:08:44.669Z,5.59
2023-11-18T05:13:44.873Z,5.57
2023-11-18T05:18:44.396Z,5.57
2023-11-18T05:23:44.109Z,5.57
2023-11-18T05:28:42.728Z,5.56
2023-11-18T05:33:42.053Z,5.52
2023-11-18T05:38:41.857Z,5.52
2023-11-18T05:43:42.400Z,5.48
2023-11-18T05:48:43.860Z,5.38
2023-11-18T05:53:41.625Z,5.34
2023-11-18T05:58:42.173Z,5.29
2023-11-18T06:03:42.125Z,5.26
2023-11-18T06:08:42.325Z,5.22
2023-11-18T06:13:39.609Z,5.2
2023-11-18T06:18:38.928Z,5.2
2023-11-18T06:23:38.908Z,5.18
2023-11-18T06:28:39.204Z,5.18
2023-11-18T06:33:39.028Z,5.16
2023-11-18T06:38:39.170Z,5.15
2023-11-18T06:43:39.738Z,5.15
2023-11-18T06:48:40.276Z,5.17
2023-11-18T06:53:37.792Z,5.19
2023-11-18T06:58:37.296Z,5.22
2023-11-18T07:05:10.507Z,5.25
2023-11-18T07:10:10.402Z,5.27
2023-11-18T07:15:10.807Z,5.57
2023-11-18T07:20:10.942Z,5.68
2023-11-18T07:25:08.107Z,5.53
2023-11-18T07:30:08.463Z,5.43
2023-11-18T07:35:08.416Z,5.4
2023-11-18T07:40:09.031Z,5.39
2023-11-18T07:45:09.261Z,5.35
2023-11-18T07:50:09.870Z,5.35
2023-11-18T07:55:10.632Z,5.37
2023-11-18T07:59:31.285Z,5.47
2023-11-18T08:04:31.766Z,5.5
2023-11-18T08:09:32.090Z,5.51
2023-11-18T08:14:31.901Z,5.65
2023-11-18T08:19:31.781Z,5.79
2023-11-18T08:24:31.631Z,5.82
2023-11-18T08:29:32.686Z,5.87
2023-11-18T08:34:29.099Z,5.93
2023-11-18T08:39:28.900Z,6.09
2023-11-18T08:44:28.734Z,6.15
2023-11-18T08:49:29.088Z,6.29
2023-11-18T08:54:28.912Z,6.33
2023-11-18T08:59:03.466Z,6.36
2023-11-18T09:04:03.102Z,6.46
2023-11-18T09:09:02.843Z,6.52
2023-11-18T09:14:12.133Z,6.6
2023-11-18T09:19:12.193Z,6.71
2023-11-18T09:24:12.140Z,6.83
2023-11-18T09:29:12.599Z,6.94
2023-11-18T09:34:12.602Z,7.07
2023-11-18T09:39:02.322Z,7.2
2023-11-18T09:44:13.324Z,7.45
2023-11-18T09:49:10.571Z,7.49
2023-11-18T09:54:11.048Z,7.71
2023-11-18T09:59:11.478Z,7.92
2023-11-18T10:04:11.406Z,8.05
2023-11-18T10:09:11.846Z,8.17
2023-11-18T10:14:11.992Z,8.26
2023-11-18T10:19:09.269Z,8.31
2023-11-18T10:24:09.752Z,8.33
2023-11-18T10:29:09.779Z,8.35
2023-11-18T10:34:10.397Z,8.39
2023-11-18T10:39:10.694Z,8.45
2023-11-18T10:44:11.484Z,8.37
2023-11-18T10:49:12.101Z,8.43
2023-11-18T10:54:09.276Z,8.53
2023-11-18T10:59:07.911Z,8.35
2023-11-18T11:04:08.171Z,8.32
2023-11-18T11:09:08.101Z,8.29
2023-11-18T11:14:08.692Z,8.28
2023-11-18T11:19:08.702Z,8.31
2023-11-18T11:23:55.548Z,8.39
2023-11-18T11:28:54.752Z,8.39
2023-11-18T11:33:54.792Z,8.35
2023-11-18T11:38:54.325Z,8.38
2023-11-18T11:43:54.299Z,8.29
2023-11-18T11:48:54.770Z,8.07
2023-11-18T11:53:54.551Z,7.98
2023-11-18T11:58:54.655Z,8.01
2023-11-18T12:03:51.903Z,8.04
2023-11-18T12:08:51.180Z,7.99
2023-11-18T12:13:51.112Z,7.95
2023-11-18T12:18:51.324Z,7.96
2023-11-18T12:23:50.943Z,8.02
2023-11-18T12:28:51.068Z,7.94
2023-11-18T12:33:51.445Z,7.95
2023-11-18T12:38:51.287Z,7.98
2023-11-18T12:43:52.463Z,7.95
2023-11-18T12:48:48.738Z,8.01
2023-11-18T12:53:48.435Z,8.04
2023-11-18T12:58:48.674Z,8
2023-11-18T13:03:49.071Z,7.95
2023-11-18T13:08:48.813Z,7.93
2023-11-18T13:13:49.135Z,7.96
2023-11-18T13:18:49.614Z,7.94
2023-11-18T13:23:50.579Z,7.82
2023-11-18T13:28:46.763Z,7.81
2023-11-18T13:33:46.520Z,7.92
2023-11-18T13:38:46.312Z,8.07
2023-11-18T13:43:46.714Z,8.08
2023-11-18T13:48:46.619Z,8.16
2023-11-18T13:53:46.848Z,8.28
2023-11-18T13:58:46.484Z,8.35
2023-11-18T14:03:46.510Z,8.53
2023-11-18T14:08:45.058Z,8.58
2023-11-18T14:13:44.388Z,8.64
2023-11-18T14:18:44.160Z,8.66
2023-11-18T14:23:44.497Z,8.59
2023-11-18T14:28:44.102Z,8.55
2023-11-18T14:33:44.102Z,8.45
2023-11-18T14:38:44.482Z,8.43
2023-11-18T14:43:44.169Z,8.41
2023-11-18T14:48:44.252Z,8.42
2023-11-18T14:53:41.855Z,8.42
2023-11-18T14:58:41.584Z,8.39
2023-11-18T15:05:03.554Z,8.34
2023-11-18T15:10:03.409Z,8.3
2023-11-18T15:15:03.856Z,8.3
2023-11-18T15:20:03.657Z,8.28
2023-11-18T15:25:03.628Z,8.25
2023-11-18T15:30:11.700Z,8.17
2023-11-18T15:35:12.359Z,8.14
2023-11-18T15:40:12.294Z,8.14
2023-11-18T15:45:13.010Z,8.14
2023-11-18T15:50:02.521Z,8.14
2023-11-18T15:55:12.982Z,8.12
2023-11-18T15:59:36.574Z,8.08
2023-11-18T16:04:34.126Z,8
2023-11-18T16:09:33.579Z,7.94
2023-11-18T16:14:33.507Z,7.9
2023-11-18T16:19:33.827Z,7.91
2023-11-18T16:24:33.616Z,7.92
2023-11-18T16:29:33.593Z,7.93
2023-11-18T16:34:33.621Z,7.95
2023-11-18T16:39:33.766Z,7.97
2023-11-18T16:44:31.232Z,7.97
2023-11-18T16:49:30.563Z,8.04
2023-11-18T16:54:35.876Z,8.07
2023-11-18T16:59:06.995Z,8.07
2023-11-18T17:04:06.760Z,8.03
2023-11-18T17:09:06.740Z,8.03
2023-11-18T17:14:07.172Z,7.97
2023-11-18T17:19:07.025Z,7.9
2023-11-18T17:24:08.051Z,7.91
2023-11-18T17:29:04.422Z,7.86
2023-11-18T17:34:03.916Z,7.85
2023-11-18T17:39:04.060Z,7.85
2023-11-18T17:44:04.430Z,7.82
2023-11-18T17:49:04.359Z,7.82
2023-11-18T17:54:04.572Z,7.83
2023-11-18T17:58:47.271Z,7.82
2023-11-18T18:03:47.249Z,7.81
2023-11-18T18:08:45.905Z,7.82
2023-11-18T18:13:46.484Z,7.8
2023-11-18T18:18:46.557Z,7.74
2023-11-18T18:23:46.962Z,7.81
2023-11-18T18:28:46.885Z,7.78
2023-11-18T18:33:47.274Z,7.74
2023-11-18T18:38:46.893Z,7.81
2023-11-18T18:43:46.862Z,7.84
2023-11-18T18:48:45.521Z,7.96
2023-11-18T18:53:45.812Z,8.01
2023-11-18T18:58:45.518Z,8.06
2023-11-18T19:03:45.782Z,7.99
2023-11-18T19:08:45.244Z,7.82
2023-11-18T19:13:45.123Z,7.72
2023-11-18T19:18:45.333Z,7.69
2023-11-18T19:23:45.169Z,7.68
2023-11-18T19:28:45.204Z,7.73
2023-11-18T19:33:42.719Z,7.71
2023-11-18T19:38:42.014Z,7.75
2023-11-18T19:43:41.802Z,7.86
2023-11-18T19:48:42.121Z,8.09
2023-11-18T19:53:42.385Z,8.24
2023-11-18T19:58:42.693Z,8.39
2023-11-18T20:05:06.880Z,8.6
2023-11-18T20:10:04.253Z,8.68
2023-11-18T20:15:03.734Z,8.81
2023-11-18T20:20:03.697Z,8.89
2023-11-18T20:25:03.960Z,8.99
2023-11-18T20:30:03.777Z,9.1
2023-11-18T20:35:03.843Z,9.24
2023-11-18T20:40:04.265Z,9.28
2023-11-18T20:50:05.136Z,9.35
2023-11-18T20:55:12.237Z,9.39
2023-11-18T20:59:33.324Z,9.46
2023-11-18T21:04:33.549Z,9.51
2023-11-18T21:09:32.904Z,9.52
2023-11-18T21:14:32.871Z,9.47
2023-11-18T21:19:33.169Z,9.34
2023-11-18T21:24:32.918Z,9.12
2023-11-18T21:29:30.908Z,8.93
2023-11-18T21:34:30.107Z,8.81
2023-11-18T21:39:29.855Z,8.72
2023-11-18T21:44:29.924Z,8.67
2023-11-18T21:49:29.340Z,8.53
2023-11-18T21:54:29.336Z,8.43
2023-11-18T21:59:06.921Z,8.35
2023-11-18T22:04:06.572Z,8.37
2023-11-18T22:09:06.567Z,8.43
2023-11-18T22:14:04.025Z,8.5
2023-11-18T22:19:03.415Z,8.58
2023-11-18T22:24:03.229Z,8.66
2023-11-18T22:29:03.455Z,8.72
2023-11-18T22:34:03.252Z,8.76
2023-11-18T22:39:03.302Z,8.8
2023-11-18T22:44:03.815Z,8.82
2023-11-18T22:49:03.550Z,8.83
2023-11-18T22:54:04.461Z,8.84
2023-11-18T22:58:43.959Z,8.84
2023-11-18T23:03:43.609Z,8.81
2023-11-18T23:08:43.902Z,8.85
2023-11-18T23:13:43.481Z,8.89
2023-11-18T23:18:43.679Z,8.97
2023-11-18T23:23:43.945Z,9.05
2023-11-18T23:28:43.870Z,9.1
2023-11-18T23:33:44.966Z,9.12
2023-11-18T23:38:41.278Z,9.13
2023-11-18T23:43:40.988Z,9.13
2023-11-18T23:48:40.948Z,9.14
2023-11-18T23:53:41.382Z,9.16
2023-11-18T23:58:41.119Z,9.18
